Time;durP1;ratioP1;P1;durP2;ratioP2;P2;SDS_P1;SDS_P2;PMS_P1;PMS_P2;Temp;Humidity;BMP_temperature;BMP_pressure;BME280_temperature;BME280_humidity;BME280_pressure;Samples;Min_cycle;Max_cycle;Signal;HPM_P1;HPM_P2
2022/01/17 00:01:09;;;;;;;;;;;;;;;;;;5027571;28;19979;-63
2022/01/17 00:03:35;;;;;;;;;;;;;;;;;;5028803;28;19932;-62
2022/01/17 00:06:01;;;;;;;;;;;;;;;;;;5032669;28;20337;-62
2022/01/17 00:08:27;;;;;;;;;;;;;;;;;;5046710;28;20374;-62
2022/01/17 00:10:53;;;;;;;;;;;;;;;;;;5046603;28;20409;-62
2022/01/17 00:13:27;;;;;;;;;;;;;;;;;;5046647;28;20294;-62
2022/01/17 00:15:56;;;;;;;;;;;;;;;;;;5037988;28;19925;-63
2022/01/17 00:20:48;;;;;;;;;;;;;;;;;;5027840;28;20015;-62
2022/01/17 00:23:14;;;;;;;;;;;;;;;;;;5027353;28;20393;-62
2022/01/17 00:25:40;;;;;;;;;;;;;;;;;;5033264;28;19929;-63
2022/01/17 00:28:06;;;;;;;;;;;;;;;;;;5046726;28;19925;-62
2022/01/17 00:30:32;;;;;;;;;;;;;;;;;;5046490;28;20317;-62
2022/01/17 00:32:58;;;;;;;;;;;;;;;;;;5045023;28;20007;-62
2022/01/17 00:35:25;;;;;;;;;;;;;;;;;;5028556;28;19971;-62
2022/01/17 00:37:51;;;;;;;;;;;;;;;;;;5027319;28;19979;-62
2022/01/17 00:40:17;;;;;;;;;;;;;;;;;;5027403;28;19968;-62
2022/01/17 00:42:44;;;;;;;;;;;;;;;;;;5027800;28;19991;-62
2022/01/17 00:45:12;;;;;;;;;;;;;;;;;;5044534;28;19925;-62
2022/01/17 00:47:38;;;;;;;;;;;;;;;;;;5028697;28;20038;-63
2022/01/17 00:50:04;;;;;;;;;;;;;;;;;;5027428;28;20395;-62
2022/01/17 00:52:30;;;;;;;;;;;;;;;;;;5027128;28;19925;-62
2022/01/17 00:54:56;;;;;;;;;;;;;;;;;;5044124;28;20171;-62
2022/01/17 00:57:22;;;;;;;;;;;;;;;;;;5037633;28;20298;-62
2022/01/17 00:59:48;;;;;;;;;;;;;;;;;;5026124;28;19929;-62
2022/01/17 01:02:14;;;;;;;;;;;;;;;;;;5027828;28;19933;-62
2022/01/17 01:04:40;;;;;;;;;;;;;;;;;;5043673;28;19936;-62
2022/01/17 01:07:06;;;;;;;;;;;;;;;;;;5045783;28;19925;-62
2022/01/17 01:09:40;;;;;;;;;;;;;;;;;;5045760;28;19925;-62
2022/01/17 01:12:06;;;;;;;;;;;;;;;;;;5046109;28;19924;-62
2022/01/17 01:14:32;;;;;;;;;;;;;;;;;;5028188;28;20287;-62
2022/01/17 01:17:06;;;;;;;;;;;;;;;;;;5026094;28;19932;-63
2022/01/17 01:19:40;;;;;;;;;;;;;;;;;;5027001;28;19932;-62
2022/01/17 01:27:53;;;;;;;;;;;;;;;;;;5045679;28;19967;-63
2022/01/17 01:30:21;;;;;;;;;;;;;;;;;;5045337;28;19968;-62
2022/01/17 01:32:52;;;;;;;;;;;;;;;;;;5036777;28;19929;-62
2022/01/17 01:35:21;;;;;;;;;;;;;;;;;;5023154;28;19936;-62
2022/01/17 01:37:48;;;;;;;;;;;;;;;;;;5025833;28;19929;-62
2022/01/17 01:40:15;;;;;;;;;;;;;;;;;;5026639;28;20309;-62
2022/01/17 01:42:41;;;;;;;;;;;;;;;;;;5033023;28;19928;-62
2022/01/17 01:45:07;;;;;;;;;;;;;;;;;;5045338;28;19925;-64
2022/01/17 01:47:33;;;;;;;;;;;;;;;;;;5044285;28;19933;-62
2022/01/17 01:49:59;;;;;;;;;;;;;;;;;;5044426;28;20290;-62
2022/01/17 01:52:25;;;;;;;;;;;;;;;;;;5036903;28;20055;-62
2022/01/17 01:54:51;;;;;;;;;;;;;;;;;;5026604;28;20385;-62
2022/01/17 01:57:17;;;;;;;;;;;;;;;;;;5026501;28;20028;-62
2022/01/17 01:59:43;;;;;;;;;;;;;;;;;;5025713;28;19971;-62
2022/01/17 02:02:09;;;;;;;;;;;;;;;;;;5077034;22;19967;-62
2022/01/17 02:04:35;;;;;;;;;;;;;;;;;;5065360;28;20067;-62
2022/01/17 02:07:01;;;;;;;;;;;;;;;;;;5066031;28;19925;-63
2022/01/17 02:09:27;;;;;;;;;;;;;;;;;;5066350;28;19939;-62
2022/01/17 02:11:53;;;;;;;;;;;;;;;;;;5071576;28;19928;-62
2022/01/17 02:14:19;;;;;;;;;;;;;;;;;;5069260;28;19932;-63
2022/01/17 02:16:48;;;;;;;;;;;;;;;;;;5066338;28;20017;-62
2022/01/17 02:19:18;;;;;;;;;;;;;;;;;;5066081;28;19967;-64
2022/01/17 02:21:46;;;;;;;;;;;;;;;;;;5074420;28;20381;-63
2022/01/17 02:24:14;;;;;;;;;;;;;;;;;;5084512;28;19921;-63
2022/01/17 02:26:40;;;;;;;;;;;;;;;;;;5085046;28;20377;-63
2022/01/17 02:29:06;;;;;;;;;;;;;;;;;;5083762;28;19995;-63
2022/01/17 02:31:32;;;;;;;;;;;;;;;;;;5075685;28;19978;-64
2022/01/17 02:33:58;;;;;;;;;;;;;;;;;;5065659;28;19920;-62
2022/01/17 02:36:24;;;;;;;;;;;;;;;;;;5061681;28;19924;-62
2022/01/17 02:38:50;;;;;;;;;;;;;;;;;;5065909;28;19975;-62
2022/01/17 02:41:16;;;;;;;;;;;;;;;;;;5073759;28;19930;-62
2022/01/17 02:43:43;;;;;;;;;;;;;;;;;;5080050;28;20378;-63
2022/01/17 02:48:35;;;;;;;;;;;;;;;;;;5072586;28;19924;-62
2022/01/17 02:51:01;;;;;;;;;;;;;;;;;;5079950;28;19931;-62
2022/01/17 02:53:27;;;;;;;;;;;;;;;;;;5069592;28;20029;-62
2022/01/17 02:55:53;;;;;;;;;;;;;;;;;;5069407;28;19924;-63
2022/01/17 02:58:19;;;;;;;;;;;;;;;;;;5069440;28;20427;-63
2022/01/17 03:00:45;;;;;;;;;;;;;;;;;;5075587;28;19925;-62
2022/01/17 03:03:12;;;;;;;;;;;;;;;;;;5088002;28;19931;-63
2022/01/17 03:05:38;;;;;;;;;;;;;;;;;;5087742;28;20312;-64
2022/01/17 03:08:04;;;;;;;;;;;;;;;;;;5088462;28;20381;-63
2022/01/17 03:10:40;;;;;;;;;;;;;;;;;;5081477;28;19925;-62
2022/01/17 03:13:07;;;;;;;;;;;;;;;;;;5088577;28;19958;-62
2022/01/17 03:15:33;;;;;;;;;;;;;;;;;;5087655;28;20003;-62
2022/01/17 03:17:59;;;;;;;;;;;;;;;;;;5086748;28;20411;-62
2022/01/17 03:20:25;;;;;;;;;;;;;;;;;;5072761;28;20027;-62
2022/01/17 03:22:51;;;;;;;;;;;;;;;;;;5068791;28;20012;-62
2022/01/17 03:25:17;;;;;;;;;;;;;;;;;;5068431;28;20034;-63
2022/01/17 03:27:43;;;;;;;;;;;;;;;;;;5068606;28;20445;-62
2022/01/17 03:30:09;;;;;;;;;;;;;;;;;;5073962;28;20023;-62
2022/01/17 03:32:35;;;;;;;;;;;;;;;;;;5087447;28;19930;-62
2022/01/17 03:35:01;;;;;;;;;;;;;;;;;;5087692;28;20262;-62
2022/01/17 03:37:27;;;;;;;;;;;;;;;;;;5087738;28;20398;-62
2022/01/17 03:39:53;;;;;;;;;;;;;;;;;;5081541;28;20580;-62
2022/01/17 03:42:19;;;;;;;;;;;;;;;;;;5068813;28;20019;-63
2022/01/17 03:44:45;;;;;;;;;;;;;;;;;;5068771;28;19924;-62
2022/01/17 03:47:11;;;;;;;;;;;;;;;;;;5067567;28;20018;-63
2022/01/17 03:49:37;;;;;;;;;;;;;;;;;;5073467;28;20448;-65
2022/01/17 03:52:03;;;;;;;;;;;;;;;;;;5087825;28;19949;-63
2022/01/17 03:54:31;;;;;;;;;;;;;;;;;;5073604;28;19947;-63
2022/01/17 03:56:57;;;;;;;;;;;;;;;;;;5067968;28;19935;-62
2022/01/17 03:59:23;;;;;;;;;;;;;;;;;;5071469;28;19934;-62
2022/01/17 04:01:49;;;;;;;;;;;;;;;;;;5086575;28;20396;-62
2022/01/17 04:04:15;;;;;;;;;;;;;;;;;;5087092;28;19998;-63
2022/01/17 04:06:41;;;;;;;;;;;;;;;;;;5086717;28;19928;-62
2022/01/17 04:09:07;;;;;;;;;;;;;;;;;;5083701;28;19931;-64
2022/01/17 04:11:33;;;;;;;;;;;;;;;;;;5067297;28;20022;-62
2022/01/17 04:13:59;;;;;;;;;;;;;;;;;;5067814;28;20067;-62
2022/01/17 04:16:25;;;;;;;;;;;;;;;;;;5067083;28;20317;-62
2022/01/17 04:18:53;;;;;;;;;;;;;;;;;;5070583;28;19931;-62
2022/01/17 04:21:19;;;;;;;;;;;;;;;;;;5087057;28;19978;-62
2022/01/17 04:23:45;;;;;;;;;;;;;;;;;;5069436;28;19952;-62
2022/01/17 04:26:11;;;;;;;;;;;;;;;;;;5067598;28;20417;-63
2022/01/17 04:28:37;;;;;;;;;;;;;;;;;;5070502;28;19932;-65
2022/01/17 04:31:03;;;;;;;;;;;;;;;;;;5086359;28;20296;-62
2022/01/17 04:33:29;;;;;;;;;;;;;;;;;;5086195;28;19970;-62
2022/01/17 04:35:55;;;;;;;;;;;;;;;;;;5086549;28;19973;-62
2022/01/17 04:38:21;;;;;;;;;;;;;;;;;;5084173;28;19924;-63
2022/01/17 04:40:47;;;;;;;;;;;;;;;;;;5076659;28;19993;-62
2022/01/17 04:43:19;;;;;;;;;;;;;;;;;;5086194;28;19924;-62
2022/01/17 04:45:45;;;;;;;;;;;;;;;;;;5084554;28;20362;-63
2022/01/17 04:48:11;;;;;;;;;;;;;;;;;;5083836;28;19924;-63
2022/01/17 04:50:37;;;;;;;;;;;;;;;;;;5085515;28;19924;-64
2022/01/17 04:53:03;;;;;;;;;;;;;;;;;;5086212;28;19931;-62
2022/01/17 04:55:29;;;;;;;;;;;;;;;;;;5086542;28;19922;-62
2022/01/17 04:57:57;;;;;;;;;;;;;;;;;;5083443;28;20011;-62
2022/01/17 05:00:23;;;;;;;;;;;;;;;;;;5066519;28;19924;-62
2022/01/17 05:02:49;;;;;;;;;;;;;;;;;;5082182;28;19980;-63
2022/01/17 05:05:15;;;;;;;;;;;;;;;;;;5086391;28;19924;-62
2022/01/17 05:07:41;;;;;;;;;;;;;;;;;;5083954;28;19916;-62
2022/01/17 05:10:07;;;;;;;;;;;;;;;;;;5066698;28;21047;-64
2022/01/17 05:12:33;;;;;;;;;;;;;;;;;;5066792;28;20015;-62
2022/01/17 05:14:59;;;;;;;;;;;;;;;;;;5083792;28;20003;-62
2022/01/17 05:19:57;;;;;;;;;;;;;;;;;;5085698;28;20327;-62
2022/01/17 05:22:24;;;;;;;;;;;;;;;;;;5085827;28;19924;-62
2022/01/17 05:24:50;;;;;;;;;;;;;;;;;;5085691;28;19924;-62
2022/01/17 05:27:16;;;;;;;;;;;;;;;;;;5081835;28;20015;-62
2022/01/17 05:29:42;;;;;;;;;;;;;;;;;;5066382;28;20020;-62
2022/01/17 05:32:08;;;;;;;;;;;;;;;;;;5066150;28;19928;-62
2022/01/17 05:34:34;;;;;;;;;;;;;;;;;;5067364;28;19970;-62
2022/01/17 05:37:00;;;;;;;;;;;;;;;;;;5068124;28;19924;-62
2022/01/17 05:39:26;;;;;;;;;;;;;;;;;;5085065;28;19928;-62
2022/01/17 05:41:52;;;;;;;;;;;;;;;;;;5084186;28;19931;-62
2022/01/17 05:44:18;;;;;;;;;;;;;;;;;;5084026;28;19928;-62
2022/01/17 05:46:44;;;;;;;;;;;;;;;;;;5083330;28;19924;-62
2022/01/17 05:49:10;;;;;;;;;;;;;;;;;;5069681;28;19955;-62
2022/01/17 05:51:36;;;;;;;;;;;;;;;;;;5086017;28;20373;-64
2022/01/17 05:54:02;;;;;;;;;;;;;;;;;;5084133;28;19932;-62
2022/01/17 05:56:28;;;;;;;;;;;;;;;;;;5084854;28;19927;-62
2022/01/17 05:58:54;;;;;;;;;;;;;;;;;;5065426;28;20424;-62
2022/01/17 06:01:20;;;;;;;;;;;;;;;;;;5065737;28;19931;-62
2022/01/17 06:03:46;;;;;;;;;;;;;;;;;;5066812;28;19928;-63
2022/01/17 06:06:12;;;;;;;;;;;;;;;;;;5066721;28;19925;-63
2022/01/17 06:08:38;;;;;;;;;;;;;;;;;;5084567;28;20361;-62
2022/01/17 06:11:04;;;;;;;;;;;;;;;;;;5079237;28;20289;-62
2022/01/17 06:13:30;;;;;;;;;;;;;;;;;;5070371;28;20380;-62
2022/01/17 06:15:56;;;;;;;;;;;;;;;;;;5084617;28;20651;-61
2022/01/17 06:18:22;;;;;;;;;;;;;;;;;;5066171;28;20354;-62
2022/01/17 06:20:48;;;;;;;;;;;;;;;;;;5065756;28;19970;-62
2022/01/17 06:23:15;;;;;;;;;;;;;;;;;;5068594;28;19970;-62
2022/01/17 06:25:41;;;;;;;;;;;;;;;;;;5069515;28;19994;-62
2022/01/17 06:28:07;;;;;;;;;;;;;;;;;;5068556;28;20271;-64
2022/01/17 06:30:33;;;;;;;;;;;;;;;;;;5068593;28;19925;-61
2022/01/17 06:32:59;;;;;;;;;;;;;;;;;;5065144;28;19943;-61
2022/01/17 06:35:25;;;;;;;;;;;;;;;;;;5061909;28;20561;-62
2022/01/17 06:37:51;;;;;;;;;;;;;;;;;;5066065;28;20270;-65
2022/01/17 06:40:18;;;;;;;;;;;;;;;;;;5074405;28;19928;-63
2022/01/17 06:42:44;;;;;;;;;;;;;;;;;;5083889;28;19931;-62
2022/01/17 06:45:12;;;;;;;;;;;;;;;;;;5078246;28;20297;-63
2022/01/17 06:47:39;;;;;;;;;;;;;;;;;;5073050;28;19951;-63
2022/01/17 06:50:05;;;;;;;;;;;;;;;;;;5056086;28;19924;-63
2022/01/17 06:52:31;;;;;;;;;;;;;;;;;;5059196;28;19983;-63
2022/01/17 06:54:57;;;;;;;;;;;;;;;;;;5062249;28;21128;-63
2022/01/17 06:57:23;;;;;;;;;;;;;;;;;;5062531;28;19999;-63
2022/01/17 06:59:49;;;;;;;;;;;;;;;;;;5061754;28;20395;-63
2022/01/17 07:02:17;;;;;;;;;;;;;;;;;;5072745;28;21217;-62
2022/01/17 07:04:43;;;;;;;;;;;;;;;;;;5068613;28;19929;-66
2022/01/17 07:07:09;;;;;;;;;;;;;;;;;;5069093;28;19978;-65
2022/01/17 07:09:36;;;;;;;;;;;;;;;;;;5070749;28;19947;-63
2022/01/17 07:12:02;;;;;;;;;;;;;;;;;;5078304;28;19924;-63
2022/01/17 07:14:28;;;;;;;;;;;;;;;;;;5071408;28;19924;-63
2022/01/17 07:16:54;;;;;;;;;;;;;;;;;;5071000;28;19932;-63
2022/01/17 07:19:20;;;;;;;;;;;;;;;;;;5086605;28;20393;-63
2022/01/17 07:21:46;;;;;;;;;;;;;;;;;;5080493;28;19964;-63
2022/01/17 07:24:12;;;;;;;;;;;;;;;;;;5071815;28;19986;-63
2022/01/17 07:26:38;;;;;;;;;;;;;;;;;;5084667;28;19932;-63
2022/01/17 07:29:08;;;;;;;;;;;;;;;;;;5086365;28;20389;-63
2022/01/17 07:31:34;;;;;;;;;;;;;;;;;;5080734;28;19969;-63
2022/01/17 07:34:00;;;;;;;;;;;;;;;;;;5084494;28;19924;-63
2022/01/17 07:36:26;;;;;;;;;;;;;;;;;;5086145;28;19928;-63
2022/01/17 07:38:52;;;;;;;;;;;;;;;;;;5085578;28;19935;-63
2022/01/17 07:41:18;;;;;;;;;;;;;;;;;;5081845;28;19924;-63
2022/01/17 07:43:44;;;;;;;;;;;;;;;;;;5086465;28;19936;-63
2022/01/17 07:46:23;;;;;;;;;;;;;;;;;;5075936;28;20046;-63
2022/01/17 07:51:34;;;;;;;;;;;;;;;;;;5079021;28;19928;-63
2022/01/17 07:54:00;;;;;;;;;;;;;;;;;;5085525;28;21634;-63
2022/01/17 07:56:26;;;;;;;;;;;;;;;;;;5085768;28;19924;-63
2022/01/17 07:58:52;;;;;;;;;;;;;;;;;;5078102;28;19924;-63
2022/01/17 08:01:18;;;;;;;;;;;;;;;;;;5074084;28;19939;-63
2022/01/17 08:03:44;;;;;;;;;;;;;;;;;;5066499;28;20007;-64
2022/01/17 08:06:10;;;;;;;;;;;;;;;;;;5068021;28;20396;-63
2022/01/17 08:08:36;;;;;;;;;;;;;;;;;;5068927;28;19921;-63
2022/01/17 08:11:02;;;;;;;;;;;;;;;;;;5073861;28;19932;-64
2022/01/17 08:13:28;;;;;;;;;;;;;;;;;;5067285;28;19924;-63
2022/01/17 08:15:55;;;;;;;;;;;;;;;;;;5080732;28;19928;-63
2022/01/17 08:18:21;;;;;;;;;;;;;;;;;;5085148;28;19932;-63
2022/01/17 08:20:47;;;;;;;;;;;;;;;;;;5081112;28;19928;-63
2022/01/17 08:23:13;;;;;;;;;;;;;;;;;;5081638;28;19924;-63
2022/01/17 08:25:39;;;;;;;;;;;;;;;;;;5067504;28;19928;-64
2022/01/17 08:28:05;;;;;;;;;;;;;;;;;;5076893;28;20024;-63
2022/01/17 08:30:32;;;;;;;;;;;;;;;;;;5076459;28;19933;-63
2022/01/17 08:32:58;;;;;;;;;;;;;;;;;;5078306;28;19931;-63
2022/01/17 08:35:24;;;;;;;;;;;;;;;;;;5085624;28;19932;-63
2022/01/17 08:37:50;;;;;;;;;;;;;;;;;;5084868;28;20385;-63
2022/01/17 08:40:16;;;;;;;;;;;;;;;;;;5080770;28;19925;-63
2022/01/17 08:42:42;;;;;;;;;;;;;;;;;;5085471;28;20004;-63
2022/01/17 08:45:08;;;;;;;;;;;;;;;;;;5084274;28;20007;-64
2022/01/17 08:47:34;;;;;;;;;;;;;;;;;;5084102;28;19924;-63
2022/01/17 08:50:00;;;;;;;;;;;;;;;;;;5078052;28;19925;-63
2022/01/17 08:52:26;;;;;;;;;;;;;;;;;;5075199;28;19939;-63
2022/01/17 08:54:53;;;;;;;;;;;;;;;;;;5083574;28;20015;-63
2022/01/17 08:57:19;;;;;;;;;;;;;;;;;;5085297;28;19924;-63
2022/01/17 08:59:45;;;;;;;;;;;;;;;;;;5076434;28;19925;-63
2022/01/17 09:02:11;;;;;;;;;;;;;;;;;;5066559;28;20120;-64
2022/01/17 09:04:40;;;;;;;;;;;;;;;;;;5067090;28;19932;-64
2022/01/17 09:07:07;;;;;;;;;;;;;;;;;;5067537;28;19925;-65
2022/01/17 09:09:33;;;;;;;;;;;;;;;;;;5072447;28;19933;-63
2022/01/17 09:11:59;;;;;;;;;;;;;;;;;;5066534;28;19925;-63
2022/01/17 09:14:27;;;;;;;;;;;;;;;;;;5078466;28;19924;-64
2022/01/17 09:16:53;;;;;;;;;;;;;;;;;;5084343;28;19924;-63
2022/01/17 09:19:19;;;;;;;;;;;;;;;;;;5079628;28;19931;-63
2022/01/17 09:21:45;;;;;;;;;;;;;;;;;;5070798;28;19933;-64
2022/01/17 09:24:11;;;;;;;;;;;;;;;;;;5066433;28;20430;-64
2022/01/17 09:26:37;;;;;;;;;;;;;;;;;;5067925;28;19932;-66
2022/01/17 09:29:03;;;;;;;;;;;;;;;;;;5075564;28;19931;-63
2022/01/17 09:31:29;;;;;;;;;;;;;;;;;;5069670;28;19931;-64
2022/01/17 09:33:55;;;;;;;;;;;;;;;;;;5072417;28;19924;-63
2022/01/17 09:36:21;;;;;;;;;;;;;;;;;;5084024;28;19939;-63
2022/01/17 09:38:47;;;;;;;;;;;;;;;;;;5079258;28;20377;-64
2022/01/17 09:41:13;;;;;;;;;;;;;;;;;;5065149;28;19939;-64
2022/01/17 09:43:39;;;;;;;;;;;;;;;;;;5082385;28;19931;-64
2022/01/17 09:46:05;;;;;;;;;;;;;;;;;;5075584;28;20000;-63
2022/01/17 09:48:37;;;;;;;;;;;;;;;;;;5070485;28;20300;-63
2022/01/17 09:51:10;;;;;;;;;;;;;;;;;;5082648;28;20746;-63
2022/01/17 09:53:38;;;;;;;;;;;;;;;;;;5081443;28;19932;-63
2022/01/17 09:56:04;;;;;;;;;;;;;;;;;;5077497;28;20361;-63
2022/01/17 09:58:30;;;;;;;;;;;;;;;;;;5078373;28;20433;-63
2022/01/17 10:00:56;;;;;;;;;;;;;;;;;;5064382;28;21006;-64
2022/01/17 10:03:23;;;;;;;;;;;;;;;;;;5080784;28;19925;-63
2022/01/17 10:05:49;;;;;;;;;;;;;;;;;;5076419;28;19932;-64
2022/01/17 10:08:16;;;;;;;;;;;;;;;;;;5075703;28;19969;-63
2022/01/17 10:10:43;;;;;;;;;;;;;;;;;;5072494;28;19952;-64
2022/01/17 10:13:10;;;;;;;;;;;;;;;;;;5066487;28;19931;-64
2022/01/17 10:15:45;;;;;;;;;;;;;;;;;;5066226;28;20335;-63
2022/01/17 10:18:11;;;;;;;;;;;;;;;;;;5071760;28;19935;-63
2022/01/17 10:20:37;;;;;;;;;;;;;;;;;;5083526;28;20718;-64
2022/01/17 10:23:07;;;;;;;;;;;;;;;;;;5084666;28;20389;-63
2022/01/17 10:28:19;;;;;;;;;;;;;;;;;;5072459;28;20362;-63
2022/01/17 10:31:18;;;;;;;;;;;;;;;;;;5070213;28;20317;-65
2022/01/17 10:36:23;;;;;;;;;;;;;;;;;;5062662;28;19925;-63
2022/01/17 10:38:49;;;;;;;;;;;;;;;;;;5073966;28;19924;-63
2022/01/17 10:41:15;;;;;;;;;;;;;;;;;;5066056;28;19924;-63
2022/01/17 10:43:45;;;;;;;;;;;;;;;;;;5065851;28;19925;-63
2022/01/17 10:46:11;;;;;;;;;;;;;;;;;;5065195;28;20015;-63
2022/01/17 10:48:37;;;;;;;;;;;;;;;;;;5076398;28;20389;-64
2022/01/17 10:51:03;;;;;;;;;;;;;;;;;;5078093;28;19924;-63
2022/01/17 10:53:29;;;;;;;;;;;;;;;;;;5084106;28;19924;-63
2022/01/17 10:55:56;;;;;;;;;;;;;;;;;;5083419;28;20036;-64
2022/01/17 10:58:23;;;;;;;;;;;;;;;;;;5070223;28;19925;-64
2022/01/17 11:00:49;;;;;;;;;;;;;;;;;;5067866;28;19970;-64
2022/01/17 11:03:15;;;;;;;;;;;;;;;;;;5080517;28;19928;-64
2022/01/17 11:05:41;;;;;;;;;;;;;;;;;;5065941;28;19925;-64
2022/01/17 11:08:08;;;;;;;;;;;;;;;;;;5065623;28;20397;-64
2022/01/17 11:10:34;;;;;;;;;;;;;;;;;;5070481;28;19931;-63
2022/01/17 11:13:01;;;;;;;;;;;;;;;;;;5086179;28;20780;-63
2022/01/17 11:15:28;;;;;;;;;;;;;;;;;;5085143;28;20023;-64
2022/01/17 11:17:57;;;;;;;;;;;;;;;;;;5076219;28;19948;-64
2022/01/17 11:20:23;;;;;;;;;;;;;;;;;;5072805;28;20397;-63
2022/01/17 11:22:49;;;;;;;;;;;;;;;;;;5080490;28;19924;-63
2022/01/17 11:25:15;;;;;;;;;;;;;;;;;;5079779;28;19932;-64
2022/01/17 11:27:41;;;;;;;;;;;;;;;;;;5075281;28;20389;-63
2022/01/17 11:30:07;;;;;;;;;;;;;;;;;;5079414;28;20369;-66
2022/01/17 11:32:33;;;;;;;;;;;;;;;;;;5087893;28;19924;-63
2022/01/17 11:34:59;;;;;;;;;;;;;;;;;;5084380;28;20006;-63
2022/01/17 11:37:25;;;;;;;;;;;;;;;;;;5075260;28;19931;-63
2022/01/17 11:39:51;;;;;;;;;;;;;;;;;;5083031;28;20006;-63
2022/01/17 11:42:17;;;;;;;;;;;;;;;;;;5077272;28;20430;-64
2022/01/17 11:44:43;;;;;;;;;;;;;;;;;;5073481;28;19967;-63
2022/01/17 11:47:10;;;;;;;;;;;;;;;;;;5071493;28;19956;-64
2022/01/17 11:49:40;;;;;;;;;;;;;;;;;;5075648;28;19987;-63
2022/01/17 11:52:11;;;;;;;;;;;;;;;;;;5086541;28;19967;-63
2022/01/17 11:54:37;;;;;;;;;;;;;;;;;;5085501;28;20003;-63
2022/01/17 11:57:03;;;;;;;;;;;;;;;;;;5074964;28;20012;-63
2022/01/17 11:59:31;;;;;;;;;;;;;;;;;;5073087;28;19929;-63
2022/01/17 12:01:57;;;;;;;;;;;;;;;;;;5072274;28;20019;-63
2022/01/17 12:04:23;;;;;;;;;;;;;;;;;;5076392;28;20011;-62
2022/01/17 12:06:49;;;;;;;;;;;;;;;;;;5075724;28;19968;-63
2022/01/17 12:09:15;;;;;;;;;;;;;;;;;;5079592;28;19990;-63
2022/01/17 12:11:42;;;;;;;;;;;;;;;;;;5068008;28;20297;-63
2022/01/17 12:14:09;;;;;;;;;;;;;;;;;;5067910;28;19924;-64
2022/01/17 12:16:37;;;;;;;;;;;;;;;;;;5069031;28;19928;-63
2022/01/17 12:19:03;;;;;;;;;;;;;;;;;;5064320;28;20019;-63
2022/01/17 12:21:30;;;;;;;;;;;;;;;;;;5064241;28;19982;-63
2022/01/17 12:23:56;;;;;;;;;;;;;;;;;;5064548;28;20445;-63
2022/01/17 12:26:22;;;;;;;;;;;;;;;;;;5064617;28;20019;-62
2022/01/17 12:28:48;;;;;;;;;;;;;;;;;;5063863;28;19929;-63
2022/01/17 12:31:14;;;;;;;;;;;;;;;;;;5064267;28;20011;-63
2022/01/17 12:33:40;;;;;;;;;;;;;;;;;;5064906;28;20287;-62
2022/01/17 12:36:06;;;;;;;;;;;;;;;;;;5065887;28;19925;-63
2022/01/17 12:38:32;;;;;;;;;;;;;;;;;;5065228;28;20352;-63
2022/01/17 12:40:58;;;;;;;;;;;;;;;;;;5063553;28;19929;-63
2022/01/17 12:43:24;;;;;;;;;;;;;;;;;;5064796;28;20365;-62
2022/01/17 12:45:51;;;;;;;;;;;;;;;;;;5065360;28;19924;-63
2022/01/17 12:48:17;;;;;;;;;;;;;;;;;;5069214;28;20275;-63
2022/01/17 12:50:43;;;;;;;;;;;;;;;;;;5066825;28;19931;-63
2022/01/17 12:53:10;;;;;;;;;;;;;;;;;;5081346;28;19963;-63
2022/01/17 12:55:36;;;;;;;;;;;;;;;;;;5078152;28;19932;-62
2022/01/17 12:58:02;;;;;;;;;;;;;;;;;;5070236;28;19932;-62
2022/01/17 13:00:28;;;;;;;;;;;;;;;;;;5066849;28;20421;-62
2022/01/17 13:02:54;;;;;;;;;;;;;;;;;;5067810;28;19954;-63
2022/01/17 13:05:20;;;;;;;;;;;;;;;;;;5075668;28;20457;-62
2022/01/17 13:07:46;;;;;;;;;;;;;;;;;;5081374;28;19975;-63
2022/01/17 13:10:12;;;;;;;;;;;;;;;;;;5080281;28;20381;-63
2022/01/17 13:12:38;;;;;;;;;;;;;;;;;;5082916;28;19923;-64
2022/01/17 13:15:04;;;;;;;;;;;;;;;;;;5066306;28;19924;-63
2022/01/17 13:17:32;;;;;;;;;;;;;;;;;;5069156;28;19925;-63
2022/01/17 13:19:59;;;;;;;;;;;;;;;;;;5072156;28;19933;-64
2022/01/17 13:22:25;;;;;;;;;;;;;;;;;;5068159;28;19977;-63
2022/01/17 13:25:02;;;;;;;;;;;;;;;;;;5076071;28;20380;-63
2022/01/17 13:27:31;;;;;;;;;;;;;;;;;;5067608;28;19929;-63
2022/01/17 13:29:57;;;;;;;;;;;;;;;;;;5063056;28;19932;-64
2022/01/17 13:32:23;;;;;;;;;;;;;;;;;;5062929;28;19925;-63
2022/01/17 13:34:49;;;;;;;;;;;;;;;;;;5062302;28;20408;-64
2022/01/17 13:37:15;;;;;;;;;;;;;;;;;;5064231;28;19924;-63
2022/01/17 13:39:41;;;;;;;;;;;;;;;;;;5063084;28;19932;-64
2022/01/17 13:42:09;;;;;;;;;;;;;;;;;;5063541;28;19935;-64
2022/01/17 13:44:36;;;;;;;;;;;;;;;;;;5062166;28;19935;-63
2022/01/17 13:47:02;;;;;;;;;;;;;;;;;;5061926;28;19935;-63
2022/01/17 13:49:28;;;;;;;;;;;;;;;;;;5064149;28;19966;-63
2022/01/17 13:51:54;;;;;;;;;;;;;;;;;;5063424;28;19931;-63
2022/01/17 13:54:20;;;;;;;;;;;;;;;;;;5059595;28;19929;-63
2022/01/17 13:56:47;;;;;;;;;;;;;;;;;;5053212;28;20378;-64
2022/01/17 13:59:15;;;;;;;;;;;;;;;;;;5061849;28;19928;-63
2022/01/17 14:01:41;;;;;;;;;;;;;;;;;;5063334;28;20019;-63
2022/01/17 14:04:07;;;;;;;;;;;;;;;;;;5062698;28;20047;-67
2022/01/17 14:06:34;;;;;;;;;;;;;;;;;;5063146;28;20035;-64
2022/01/17 14:09:03;;;;;;;;;;;;;;;;;;5062966;28;20271;-62
2022/01/17 14:11:30;;;;;;;;;;;;;;;;;;5063240;28;19959;-62
2022/01/17 14:13:56;;;;;;;;;;;;;;;;;;5062467;28;19928;-63
2022/01/17 14:16:22;;;;;;;;;;;;;;;;;;5063557;28;19925;-63
2022/01/17 14:18:48;;;;;;;;;;;;;;;;;;5061059;28;20015;-64
2022/01/17 14:21:14;;;;;;;;;;;;;;;;;;5054206;28;20374;-64
2022/01/17 14:23:40;;;;;;;;;;;;;;;;;;5047797;28;20473;-64
2022/01/17 14:26:06;;;;;;;;;;;;;;;;;;5050320;28;20050;-63
2022/01/17 14:28:34;;;;;;;;;;;;;;;;;;5054259;28;19925;-63
2022/01/17 14:31:01;;;;;;;;;;;;;;;;;;5055747;28;19936;-64
2022/01/17 14:33:28;;;;;;;;;;;;;;;;;;5053682;28;20444;-63
2022/01/17 14:35:54;;;;;;;;;;;;;;;;;;5056316;28;19974;-63
2022/01/17 14:38:20;;;;;;;;;;;;;;;;;;5054288;28;20698;-63
2022/01/17 14:40:46;;;;;;;;;;;;;;;;;;5059008;28;19936;-63
2022/01/17 14:43:13;;;;;;;;;;;;;;;;;;5063168;28;19933;-63
2022/01/17 14:45:39;;;;;;;;;;;;;;;;;;5066269;28;20290;-63
2022/01/17 14:48:05;;;;;;;;;;;;;;;;;;5067419;28;19969;-63
2022/01/17 14:50:31;;;;;;;;;;;;;;;;;;5067347;28;19928;-64
2022/01/17 14:52:57;;;;;;;;;;;;;;;;;;5065943;28;19928;-64
2022/01/17 14:59:26;;;;;;;;;;;;;;;;;;5066653;28;19973;-64
2022/01/17 15:01:16;;;;;;;;;;;;;;;;;;5067069;28;19932;-64
2022/01/17 15:03:42;;;;;;;;;;;;;;;;;;5065420;28;19939;-63
2022/01/17 15:06:09;;;;;;;;;;;;;;;;;;5066586;28;19930;-64
2022/01/17 15:08:35;;;;;;;;;;;;;;;;;;5068925;28;19985;-63
2022/01/17 15:11:01;;;;;;;;;;;;;;;;;;5066434;28;19929;-64
2022/01/17 15:13:27;;;;;;;;;;;;;;;;;;5065368;28;19939;-63
2022/01/17 15:15:53;;;;;;;;;;;;;;;;;;5066075;28;19928;-63
2022/01/17 15:18:20;;;;;;;;;;;;;;;;;;5063693;28;19932;-63
2022/01/17 15:20:47;;;;;;;;;;;;;;;;;;5065850;28;20734;-63
2022/01/17 15:23:13;;;;;;;;;;;;;;;;;;5065804;28;19935;-63
2022/01/17 15:25:39;;;;;;;;;;;;;;;;;;5065374;28;20390;-64
2022/01/17 15:28:05;;;;;;;;;;;;;;;;;;5066954;28;19928;-63
2022/01/17 15:30:33;;;;;;;;;;;;;;;;;;5065109;28;19927;-63
2022/01/17 15:32:59;;;;;;;;;;;;;;;;;;5064687;28;20282;-64
2022/01/17 15:35:28;;;;;;;;;;;;;;;;;;5066165;28;19928;-63
2022/01/17 15:37:54;;;;;;;;;;;;;;;;;;5064924;28;19916;-63
2022/01/17 15:40:21;;;;;;;;;;;;;;;;;;5064099;28;20019;-62
2022/01/17 15:42:47;;;;;;;;;;;;;;;;;;5065277;28;19993;-62
2022/01/17 15:45:13;;;;;;;;;;;;;;;;;;5065755;28;19947;-63
2022/01/17 15:47:39;;;;;;;;;;;;;;;;;;5066160;28;20267;-63
2022/01/17 15:50:05;;;;;;;;;;;;;;;;;;5065267;28;19932;-63
2022/01/17 15:52:31;;;;;;;;;;;;;;;;;;5063610;28;19935;-64
2022/01/17 15:54:57;;;;;;;;;;;;;;;;;;5065492;28;20019;-63
2022/01/17 15:57:24;;;;;;;;;;;;;;;;;;5064445;28;19972;-63
2022/01/17 15:59:50;;;;;;;;;;;;;;;;;;5081396;28;19950;-62
2022/01/17 16:02:16;;;;;;;;;;;;;;;;;;5084672;28;20459;-63
2022/01/17 16:04:45;;;;;;;;;;;;;;;;;;5086129;28;19960;-63
2022/01/17 16:07:11;;;;;;;;;;;;;;;;;;5084594;28;19963;-63
2022/01/17 16:09:37;;;;;;;;;;;;;;;;;;5083404;28;19976;-64
2022/01/17 16:12:03;;;;;;;;;;;;;;;;;;5078886;28;19964;-63
2022/01/17 16:14:29;;;;;;;;;;;;;;;;;;5083669;28;19920;-63
2022/01/17 16:16:55;;;;;;;;;;;;;;;;;;5085908;28;19924;-63
2022/01/17 16:19:21;;;;;;;;;;;;;;;;;;5070797;28;19936;-63
2022/01/17 16:21:48;;;;;;;;;;;;;;;;;;5067535;28;20290;-63
2022/01/17 16:24:14;;;;;;;;;;;;;;;;;;5067432;28;19924;-63
2022/01/17 16:26:40;;;;;;;;;;;;;;;;;;5066689;28;20417;-63
2022/01/17 16:29:06;;;;;;;;;;;;;;;;;;5062877;28;19924;-63
2022/01/17 16:31:32;;;;;;;;;;;;;;;;;;5064738;28;19927;-63
2022/01/17 16:33:58;;;;;;;;;;;;;;;;;;5066387;28;20452;-63
2022/01/17 16:36:24;;;;;;;;;;;;;;;;;;5062458;28;20650;-63
2022/01/17 16:38:50;;;;;;;;;;;;;;;;;;5064772;28;20396;-63
2022/01/17 16:41:17;;;;;;;;;;;;;;;;;;5064042;28;19951;-64
2022/01/17 16:43:44;;;;;;;;;;;;;;;;;;5060953;28;19928;-63
2022/01/17 16:46:10;;;;;;;;;;;;;;;;;;5064001;28;19928;-63
2022/01/17 16:48:36;;;;;;;;;;;;;;;;;;5061618;28;19928;-63
2022/01/17 16:51:02;;;;;;;;;;;;;;;;;;5065680;28;19927;-63
2022/01/17 16:53:28;;;;;;;;;;;;;;;;;;5065261;28;19928;-62
2022/01/17 16:55:54;;;;;;;;;;;;;;;;;;5064730;28;19928;-62
2022/01/17 16:58:23;;;;;;;;;;;;;;;;;;5062853;28;21910;-63
2022/01/17 17:00:50;;;;;;;;;;;;;;;;;;5064808;28;19935;-63
2022/01/17 17:03:16;;;;;;;;;;;;;;;;;;5065193;28;19928;-62
2022/01/17 17:05:42;;;;;;;;;;;;;;;;;;5063970;28;20431;-62